createdAt,value
2023-05-19T00:01:31.570Z,79.59
2023-05-19T00:04:02.594Z,79.85
2023-05-19T00:06:33.558Z,80.14
2023-05-19T00:09:03.017Z,80.19
2023-05-19T00:11:31.264Z,80.50
2023-05-19T00:14:00.457Z,80.28
2023-05-19T00:16:30.666Z,80.81
2023-05-19T00:19:00.610Z,81.00
2023-05-19T00:21:28.432Z,81.58
2023-05-19T00:23:57.454Z,81.83
2023-05-19T00:26:25.134Z,82.46
2023-05-19T00:28:59.930Z,82.68
2023-05-19T00:31:27.812Z,82.15
2023-05-19T00:33:56.135Z,82.43
2023-05-19T00:36:23.842Z,82.73
2023-05-19T00:38:51.806Z,82.83
2023-05-19T00:41:21.053Z,83.13
2023-05-19T00:43:48.765Z,83.52
2023-05-19T00:46:16.439Z,83.48
2023-05-19T00:48:45.502Z,83.69
2023-05-19T00:51:17.004Z,83.97
2023-05-19T00:53:49.024Z,84.53
2023-05-19T00:56:17.546Z,84.37
2023-05-19T00:58:46.669Z,83.50
2023-05-19T01:01:17.026Z,84.50
2023-05-19T01:03:45.362Z,84.32
2023-05-19T01:06:13.232Z,84.61
2023-05-19T01:08:40.829Z,84.60
2023-05-19T01:11:09.363Z,84.46
2023-05-19T01:13:39.700Z,84.45
2023-05-19T01:16:15.207Z,84.96
2023-05-19T01:18:57.217Z,84.83
2023-05-19T01:21:44.315Z,85.03
2023-05-19T01:24:33.921Z,85.15
2023-05-19T01:27:15.179Z,85.12
2023-05-19T01:29:49.565Z,85.65
2023-05-19T01:32:21.752Z,85.63
2023-05-19T01:34:51.884Z,85.93
2023-05-19T01:37:20.906Z,85.75
2023-05-19T01:39:49.423Z,85.74
2023-05-19T01:42:18.345Z,86.26
2023-05-19T01:44:47.186Z,85.92
2023-05-19T01:47:15.900Z,86.05
2023-05-19T01:49:44.888Z,86.62
2023-05-19T01:52:12.544Z,86.77
2023-05-19T01:54:40.152Z,86.69
2023-05-19T01:57:14.923Z,86.47
2023-05-19T01:59:53.081Z,86.13
2023-05-19T02:02:27.477Z,85.78
2023-05-19T02:05:03.953Z,86.06
2023-05-19T02:07:38.994Z,86.12
2023-05-19T02:10:11.708Z,86.74
2023-05-19T02:12:41.475Z,86.73
2023-05-19T02:15:14.014Z,87.32
2023-05-19T02:17:47.735Z,87.51
2023-05-19T02:20:17.170Z,87.30
2023-05-19T02:22:45.397Z,87.99
2023-05-19T02:25:14.200Z,88.12
2023-05-19T02:27:42.695Z,88.24
2023-05-19T02:30:11.266Z,87.98
2023-05-19T02:32:39.596Z,87.94
2023-05-19T02:35:07.900Z,88.25
2023-05-19T02:37:36.831Z,88.07
2023-05-19T02:40:05.444Z,88.49
2023-05-19T02:42:33.281Z,88.35
2023-05-19T02:45:01.592Z,88.22
2023-05-19T02:47:29.367Z,88.71
2023-05-19T02:49:57.000Z,88.68
2023-05-19T02:52:24.610Z,89.17
2023-05-19T02:54:53.590Z,88.97
2023-05-19T02:57:22.122Z,88.96
2023-05-19T02:59:49.747Z,88.85
2023-05-19T03:02:17.397Z,88.84
2023-05-19T03:04:45.608Z,88.62
2023-05-19T03:07:15.750Z,89.75
2023-05-19T03:09:43.506Z,89.32
2023-05-19T03:12:12.487Z,89.19
2023-05-19T03:14:40.220Z,89.25
2023-05-19T03:17:10.469Z,89.28
2023-05-19T03:19:38.322Z,89.19
2023-05-19T03:22:06.262Z,89.37
2023-05-19T03:24:36.186Z,89.30
2023-05-19T03:27:05.174Z,89.43
2023-05-19T03:29:34.165Z,89.33
2023-05-19T03:32:01.830Z,89.16
2023-05-19T03:34:29.668Z,89.86
2023-05-19T03:36:58.587Z,89.62
2023-05-19T03:39:26.218Z,89.91
2023-05-19T03:41:53.987Z,89.54
2023-05-19T03:44:21.552Z,89.93
2023-05-19T03:46:50.608Z,90.05
2023-05-19T03:49:56.573Z,89.77
2023-05-19T03:52:49.793Z,89.85
2023-05-19T03:55:40.159Z,90.50
2023-05-19T03:58:07.749Z,90.56
2023-05-19T04:00:37.755Z,90.18
2023-05-19T04:03:06.719Z,91.40
2023-05-19T04:05:34.610Z,90.88
2023-05-19T04:08:02.181Z,90.14
2023-05-19T04:10:30.441Z,89.72
2023-05-19T04:12:58.222Z,89.00
2023-05-19T04:15:27.264Z,89.52
2023-05-19T04:17:54.925Z,88.92
2023-05-19T04:20:24.009Z,88.53
2023-05-19T04:22:51.744Z,88.18
2023-05-19T04:25:20.330Z,88.33
2023-05-19T04:27:48.632Z,88.05
2023-05-19T04:30:22.006Z,88.21
2023-05-19T04:32:50.409Z,87.77
2023-05-19T04:35:18.344Z,87.56
2023-05-19T04:37:49.862Z,87.35
2023-05-19T04:40:23.575Z,87.80
2023-05-19T04:42:54.060Z,87.72
2023-05-19T04:45:23.200Z,87.69
2023-05-19T04:47:57.754Z,87.84
2023-05-19T04:50:25.629Z,87.64
2023-05-19T04:52:55.060Z,87.01
2023-05-19T04:55:22.968Z,87.18
2023-05-19T04:57:51.102Z,86.51
2023-05-19T05:00:22.080Z,85.88
2023-05-19T05:02:59.972Z,85.66
2023-05-19T05:05:30.280Z,85.21
2023-05-19T05:07:59.920Z,84.97
2023-05-19T05:10:30.926Z,84.98
2023-05-19T05:12:59.390Z,85.12
2023-05-19T05:15:28.832Z,84.98
2023-05-19T05:17:59.340Z,85.18
2023-05-19T05:20:27.918Z,84.67
2023-05-19T05:22:57.592Z,84.30
2023-05-19T05:25:28.624Z,83.80
2023-05-19T05:27:56.243Z,83.51
2023-05-19T05:30:24.443Z,84.37
2023-05-19T05:32:52.873Z,83.83
2023-05-19T05:35:34.357Z,83.22
2023-05-19T05:38:02.584Z,82.74
2023-05-19T05:40:31.695Z,81.83
2023-05-19T05:42:59.852Z,82.00
2023-05-19T05:45:31.112Z,81.82
2023-05-19T05:48:01.653Z,81.41
2023-05-19T05:50:31.371Z,81.38
2023-05-19T05:53:02.700Z,81.57
2023-05-19T05:55:32.539Z,81.69
2023-05-19T05:58:03.554Z,80.65
2023-05-19T06:00:31.793Z,81.27
2023-05-19T06:03:00.041Z,79.94
2023-05-19T06:05:27.809Z,81.37
2023-05-19T06:07:56.243Z,82.49
2023-05-19T06:10:26.903Z,81.53
2023-05-19T06:12:57.028Z,76.52
2023-05-19T06:15:25.269Z,75.05
2023-05-19T06:18:15.875Z,76.35
2023-05-19T06:20:43.506Z,72.50
2023-05-19T06:23:11.298Z,71.64
2023-05-19T06:25:38.931Z,70.56
2023-05-19T06:28:07.949Z,68.37
2023-05-19T06:30:36.672Z,69.28
2023-05-19T06:33:26.683Z,69.30
2023-05-19T06:35:55.809Z,69.29
2023-05-19T06:38:23.569Z,68.89
2023-05-19T06:40:51.621Z,69.01
2023-05-19T06:43:21.018Z,67.38
2023-05-19T06:45:56.662Z,67.04
2023-05-19T06:48:26.205Z,66.71
2023-05-19T06:50:54.142Z,67.14
2023-05-19T06:53:21.887Z,66.33
2023-05-19T06:55:58.882Z,66.26
2023-05-19T06:58:29.841Z,66.93
2023-05-19T07:00:58.328Z,66.00
2023-05-19T07:03:31.019Z,66.11
2023-05-19T07:05:59.764Z,66.32
2023-05-19T07:08:29.110Z,66.85
2023-05-19T07:15:20.885Z,65.43
2023-05-19T07:17:49.204Z,64.79
2023-05-19T07:20:16.994Z,64.34
2023-05-19T07:22:44.917Z,63.89
2023-05-19T07:25:12.496Z,64.18
2023-05-19T07:27:41.244Z,64.52
2023-05-19T07:30:09.906Z,63.84
2023-05-19T07:32:38.914Z,63.28
2023-05-19T07:35:07.333Z,63.63
2023-05-19T07:37:35.060Z,62.86
2023-05-19T07:40:02.736Z,61.78
2023-05-19T07:42:30.450Z,61.82
2023-05-19T07:44:58.248Z,62.93
2023-05-19T07:47:26.049Z,64.25
2023-05-19T07:49:55.086Z,61.66
2023-05-19T08:04:23.525Z,59.51
2023-05-19T08:06:52.936Z,59.17
2023-05-19T08:09:20.664Z,58.60
2023-05-19T08:11:48.570Z,58.97
2023-05-19T08:14:16.479Z,57.95
2023-05-19T08:16:45.904Z,59.67
2023-05-19T08:19:13.606Z,57.31
2023-05-19T08:21:42.204Z,57.52
2023-05-19T08:24:11.300Z,56.33
2023-05-19T08:26:38.941Z,56.36
2023-05-19T08:29:06.540Z,55.99
2023-05-19T08:31:34.624Z,54.83
2023-05-19T08:34:02.247Z,54.98
2023-05-19T08:36:30.625Z,54.32
2023-05-19T08:38:58.247Z,53.75
2023-05-19T08:41:27.359Z,54.58
2023-05-19T08:43:55.634Z,53.32
2023-05-19T08:46:26.469Z,54.48
2023-05-19T08:48:59.657Z,54.79
2023-05-19T08:51:37.687Z,52.03
2023-05-19T08:54:13.898Z,51.63
2023-05-19T08:56:44.363Z,52.71
2023-05-19T08:59:14.175Z,52.79
2023-05-19T09:01:43.634Z,53.97
2023-05-19T09:04:11.767Z,51.58
2023-05-19T09:06:40.963Z,53.01
2023-05-19T09:09:08.631Z,50.05
2023-05-19T09:11:37.536Z,48.71
2023-05-19T09:14:06.695Z,49.30
2023-05-19T09:16:34.539Z,49.81
2023-05-19T09:19:02.472Z,48.02
2023-05-19T09:21:31.899Z,47.41
2023-05-19T09:24:05.560Z,46.38
2023-05-19T09:26:38.421Z,45.89
2023-05-19T09:29:13.747Z,46.22
2023-05-19T09:31:49.132Z,46.85
2023-05-19T09:34:16.922Z,45.72
2023-05-19T09:36:44.888Z,46.11
2023-05-19T09:39:15.984Z,45.11
2023-05-19T09:41:44.106Z,44.81
2023-05-19T09:44:22.483Z,46.38
2023-05-19T09:46:50.699Z,45.83
2023-05-19T09:49:22.692Z,42.99
2023-05-19T09:51:52.186Z,43.19
2023-05-19T09:54:21.633Z,44.12
2023-05-19T09:56:54.292Z,43.78
2023-05-19T09:59:25.404Z,43.25
2023-05-19T10:01:55.642Z,43.59
2023-05-19T10:04:24.878Z,44.12
2023-05-19T10:06:54.248Z,44.66
2023-05-19T10:09:24.731Z,45.67
2023-05-19T10:11:54.026Z,44.45
2023-05-19T10:14:24.882Z,42.84
2023-05-19T10:16:53.130Z,42.94
2023-05-19T10:19:22.682Z,44.07
2023-05-19T10:21:51.269Z,42.77
2023-05-19T10:24:19.221Z,41.22
2023-05-19T10:26:50.743Z,42.31
2023-05-19T10:29:23.706Z,41.00
2023-05-19T10:31:54.331Z,40.35
2023-05-19T10:34:50.244Z,39.45
2023-05-19T10:37:27.038Z,41.28
2023-05-19T10:39:55.726Z,41.11
2023-05-19T10:42:34.845Z,40.35
2023-05-19T10:45:14.339Z,40.92
2023-05-19T10:47:43.508Z,42.55
2023-05-19T10:50:11.984Z,42.76
2023-05-19T10:52:41.150Z,42.44
2023-05-19T10:55:10.005Z,43.30
2023-05-19T10:57:37.645Z,43.81
2023-05-19T11:00:26.478Z,41.91
2023-05-19T11:02:57.383Z,40.85
2023-05-19T11:05:30.116Z,42.00
2023-05-19T11:08:02.540Z,40.68
2023-05-19T11:10:30.646Z,41.86
2023-05-19T11:12:59.138Z,42.66
2023-05-19T11:15:28.153Z,41.11
2023-05-19T11:17:57.308Z,40.54
2023-05-19T11:20:26.434Z,41.59
2023-05-19T11:23:06.894Z,40.21
2023-05-19T11:25:46.651Z,39.26
2023-05-19T11:28:17.265Z,40.92
2023-05-19T11:30:46.885Z,39.97
2023-05-19T11:33:19.209Z,40.07
2023-05-19T11:35:47.608Z,39.24
2023-05-19T11:38:15.417Z,40.60
2023-05-19T11:40:43.419Z,40.42
2023-05-19T11:43:11.241Z,41.83
2023-05-19T11:45:39.054Z,42.10
2023-05-19T11:48:07.126Z,42.73
2023-05-19T11:50:38.207Z,42.52
2023-05-19T11:53:05.920Z,44.02
2023-05-19T11:55:33.802Z,44.16
2023-05-19T11:58:04.523Z,44.03
2023-05-19T12:00:37.963Z,45.46
2023-05-19T12:03:06.015Z,44.32
2023-05-19T12:05:40.832Z,45.57
2023-05-19T12:08:09.924Z,45.20
2023-05-19T12:10:37.957Z,44.78
2023-05-19T12:13:08.885Z,43.91
2023-05-19T12:15:36.767Z,44.39
2023-05-19T12:18:04.679Z,45.75
2023-05-19T12:20:35.397Z,45.25
2023-05-19T12:23:04.632Z,44.99
2023-05-19T12:25:33.205Z,45.90
2023-05-19T12:28:02.761Z,48.44
2023-05-19T12:30:31.798Z,47.60
2023-05-19T12:33:00.261Z,46.83
2023-05-19T12:35:29.342Z,47.23
2023-05-19T12:37:57.909Z,46.43
2023-05-19T12:40:27.256Z,47.90
2023-05-19T12:42:58.922Z,47.53
2023-05-19T12:45:28.706Z,46.80
2023-05-19T12:47:57.012Z,46.83
2023-05-19T12:50:31.393Z,48.27
2023-05-19T12:52:59.715Z,46.74
2023-05-19T12:55:29.742Z,46.52
2023-05-19T12:57:58.161Z,47.34
2023-05-19T13:00:29.022Z,47.06
2023-05-19T13:02:59.102Z,46.75
2023-05-19T13:05:27.479Z,47.25
2023-05-19T13:07:56.927Z,46.98
2023-05-19T13:10:26.912Z,47.21
2023-05-19T13:12:56.834Z,45.37
2023-05-19T13:15:26.286Z,45.33
2023-05-19T13:17:55.384Z,45.89
2023-05-19T13:20:23.107Z,46.21
2023-05-19T13:22:51.380Z,45.99
2023-05-19T13:25:19.319Z,47.03
2023-05-19T13:27:47.197Z,46.25
2023-05-19T13:30:16.808Z,46.64
2023-05-19T13:32:44.573Z,47.02
2023-05-19T13:35:14.043Z,47.54
2023-05-19T13:37:42.410Z,47.70
2023-05-19T13:40:11.212Z,48.09
2023-05-19T13:42:39.042Z,47.59
2023-05-19T13:45:07.632Z,47.22
2023-05-19T13:47:36.825Z,47.44
2023-05-19T13:50:05.328Z,47.97
2023-05-19T13:52:33.591Z,47.53
2023-05-19T13:55:01.166Z,48.25
2023-05-19T13:57:28.776Z,48.76
2023-05-19T14:00:01.794Z,48.48
2023-05-19T14:02:40.994Z,47.34
2023-05-19T14:05:09.053Z,47.69
2023-05-19T14:07:37.212Z,48.49
2023-05-19T14:10:06.708Z,47.67
2023-05-19T14:12:44.982Z,48.84
2023-05-19T14:15:19.860Z,49.20
2023-05-19T14:17:49.523Z,48.86
2023-05-19T14:20:17.187Z,48.74
2023-05-19T14:22:44.877Z,47.55
2023-05-19T14:25:12.522Z,47.96
2023-05-19T14:27:40.707Z,47.09
2023-05-19T14:30:09.602Z,47.65
2023-05-19T14:32:37.271Z,47.69
2023-05-19T14:35:07.313Z,47.68
2023-05-19T14:37:35.007Z,47.99
2023-05-19T14:40:04.030Z,47.73
2023-05-19T14:42:31.609Z,47.25
2023-05-19T14:44:59.212Z,48.16
2023-05-19T14:47:27.499Z,47.32
2023-05-19T14:49:55.281Z,47.13
2023-05-19T14:52:24.367Z,47.21
2023-05-19T14:54:52.182Z,47.24
2023-05-19T14:57:19.766Z,47.74
2023-05-19T14:59:47.338Z,47.81
2023-05-19T15:02:14.897Z,47.82
2023-05-19T15:04:42.512Z,48.22
2023-05-19T15:07:10.978Z,48.82
2023-05-19T15:09:40.486Z,48.57
2023-05-19T15:12:08.058Z,47.69
2023-05-19T15:14:35.691Z,47.34
2023-05-19T15:17:03.390Z,48.00
2023-05-19T15:19:31.062Z,47.82
2023-05-19T15:21:58.782Z,48.02
2023-05-19T15:24:26.803Z,48.29
2023-05-19T15:26:56.347Z,47.88
2023-05-19T15:29:23.972Z,48.43
2023-05-19T15:31:52.335Z,47.91
2023-05-19T15:34:20.056Z,48.38
2023-05-19T15:36:47.837Z,48.48
2023-05-19T15:39:15.467Z,48.41
2023-05-19T15:41:43.149Z,48.41
2023-05-19T15:44:12.258Z,48.90
2023-05-19T15:46:40.014Z,48.84
2023-05-19T15:49:07.640Z,48.84
2023-05-19T15:51:35.526Z,49.52
2023-05-19T15:54:03.153Z,49.47
2023-05-19T15:56:30.738Z,49.31
2023-05-19T15:58:58.372Z,49.23
2023-05-19T16:01:27.519Z,50.24
2023-05-19T16:03:55.281Z,49.74
2023-05-19T16:06:24.554Z,49.50
2023-05-19T16:08:52.080Z,49.21
2023-05-19T16:11:20.630Z,48.86
2023-05-19T16:13:48.279Z,49.71
2023-05-19T16:16:16.080Z,49.92
2023-05-19T16:18:45.634Z,50.40
2023-05-19T16:21:13.203Z,49.90
2023-05-19T16:23:40.900Z,49.61
2023-05-19T16:26:08.461Z,49.90
2023-05-19T16:28:36.190Z,49.40
2023-05-19T16:31:03.813Z,49.52
2023-05-19T16:33:32.064Z,49.25
2023-05-19T16:36:01.108Z,49.27
2023-05-19T16:38:28.705Z,49.97
2023-05-19T16:40:56.598Z,50.50
2023-05-19T16:43:24.293Z,50.28
2023-05-19T16:45:51.985Z,49.80
2023-05-19T16:48:19.726Z,50.48
2023-05-19T16:50:48.872Z,51.31
2023-05-19T16:53:17.883Z,50.75
2023-05-19T16:55:45.592Z,50.62
2023-05-19T16:58:13.324Z,51.65
2023-05-19T17:00:40.924Z,51.01
2023-05-19T17:03:08.616Z,52.00
2023-05-19T17:05:38.834Z,51.94
2023-05-19T17:08:06.602Z,52.27
2023-05-19T17:10:35.946Z,52.26
2023-05-19T17:13:03.642Z,51.71
2023-05-19T17:15:31.253Z,51.80
2023-05-19T17:17:58.884Z,52.36
2023-05-19T17:20:26.477Z,53.03
2023-05-19T17:22:54.055Z,51.90
2023-05-19T17:25:21.610Z,51.72
2023-05-19T17:27:52.242Z,52.35
2023-05-19T17:30:19.847Z,53.15
2023-05-19T17:32:47.743Z,54.99
2023-05-19T17:35:15.538Z,55.37
2023-05-19T17:37:43.104Z,55.40
2023-05-19T17:40:12.164Z,55.91
2023-05-19T17:42:39.754Z,56.43
2023-05-19T17:45:12.012Z,57.22
2023-05-19T17:47:39.745Z,57.90
2023-05-19T17:50:08.466Z,58.30
2023-05-19T17:52:36.600Z,57.18
2023-05-19T17:55:05.157Z,57.83
2023-05-19T17:57:34.565Z,59.04
2023-05-19T18:00:03.723Z,57.48
2023-05-19T18:02:34.506Z,56.86
2023-05-19T18:05:03.268Z,58.78
2023-05-19T18:07:33.522Z,62.75
2023-05-19T18:10:02.428Z,63.08
2023-05-19T18:12:30.154Z,64.30
2023-05-19T18:14:57.738Z,65.55
2023-05-19T18:17:25.336Z,65.57
2023-05-19T18:19:54.864Z,65.27
2023-05-19T18:22:22.503Z,64.91
2023-05-19T18:24:50.339Z,65.54
2023-05-19T18:27:18.004Z,64.94
2023-05-19T18:29:45.560Z,64.79
2023-05-19T18:32:14.323Z,65.39
2023-05-19T18:34:42.114Z,65.76
2023-05-19T18:37:11.154Z,65.73
2023-05-19T18:39:38.775Z,66.54
2023-05-19T18:42:07.023Z,67.01
2023-05-19T18:44:34.739Z,68.66
2023-05-19T18:47:02.778Z,69.81
2023-05-19T18:49:30.433Z,68.63
2023-05-19T18:51:58.093Z,69.66
2023-05-19T18:54:27.192Z,70.56
2023-05-19T18:56:55.493Z,70.94
2023-05-19T18:59:24.479Z,71.06
2023-05-19T19:01:53.611Z,71.18
2023-05-19T19:04:21.642Z,71.74
2023-05-19T19:06:49.897Z,72.13
2023-05-19T19:09:17.474Z,72.53
2023-05-19T19:11:46.564Z,72.95
2023-05-19T19:14:16.738Z,73.45
2023-05-19T19:16:44.386Z,74.76
2023-05-19T19:19:12.148Z,75.14
2023-05-19T19:21:39.863Z,74.69
2023-05-19T19:24:07.840Z,74.95
2023-05-19T19:26:35.519Z,74.35
2023-05-19T19:29:04.401Z,73.67
2023-05-19T19:31:33.189Z,74.28
2023-05-19T19:34:03.809Z,75.29
2023-05-19T19:36:31.842Z,75.78
2023-05-19T19:38:59.687Z,75.88
2023-05-19T19:41:29.647Z,75.49
2023-05-19T19:43:57.386Z,75.00
2023-05-19T19:46:26.374Z,75.24
2023-05-19T19:48:57.291Z,75.62
2023-05-19T19:51:24.977Z,75.92
2023-05-19T19:53:52.592Z,76.27
2023-05-19T19:56:20.330Z,76.13
2023-05-19T19:58:47.934Z,75.73
2023-05-19T20:01:15.896Z,76.07
2023-05-19T20:03:44.923Z,76.12
2023-05-19T20:06:13.251Z,76.92
2023-05-19T20:08:40.837Z,77.40
2023-05-19T20:11:08.396Z,77.73
2023-05-19T20:13:36.406Z,78.03
2023-05-19T20:16:04.081Z,78.29
2023-05-19T20:18:31.682Z,78.88
2023-05-19T20:21:00.939Z,78.58
2023-05-19T20:23:28.642Z,78.76
2023-05-19T20:26:11.111Z,79.25
2023-05-19T20:28:39.877Z,79.46
2023-05-19T20:31:07.780Z,79.42
2023-05-19T20:33:35.476Z,79.54
2023-05-19T20:36:06.456Z,79.94
2023-05-19T20:38:34.043Z,79.86
2023-05-19T20:41:01.956Z,80.25
2023-05-19T20:43:29.574Z,80.60
2023-05-19T20:45:57.231Z,80.81
2023-05-19T20:48:24.894Z,80.88
2023-05-19T20:50:52.567Z,81.04
2023-05-19T20:53:22.614Z,81.53
2023-05-19T20:55:50.342Z,81.25
2023-05-19T20:58:17.968Z,81.64
2023-05-19T21:00:45.589Z,81.79
2023-05-19T21:03:13.233Z,82.01
2023-05-19T21:05:40.941Z,82.78
2023-05-19T21:08:12.538Z,82.99
2023-05-19T21:10:41.810Z,82.91
2023-05-19T21:13:09.508Z,83.07
2023-05-19T21:15:37.090Z,82.99
2023-05-19T21:18:04.808Z,83.12
2023-05-19T21:20:32.673Z,83.42
2023-05-19T21:23:00.548Z,83.43
2023-05-19T21:25:28.198Z,83.53
2023-05-19T21:27:58.104Z,82.92
2023-05-19T21:30:26.074Z,82.79
2023-05-19T21:32:53.849Z,83.43
2023-05-19T21:35:21.559Z,83.63
2023-05-19T21:37:49.214Z,83.82
2023-05-19T21:40:16.998Z,84.03
2023-05-19T21:42:44.561Z,84.12
2023-05-19T21:45:13.579Z,83.72
2023-05-19T21:47:41.236Z,83.93
2023-05-19T21:50:10.945Z,83.45
2023-05-19T21:52:38.585Z,83.24
2023-05-19T21:55:07.646Z,83.15
2023-05-19T21:57:35.221Z,83.07
2023-05-19T22:00:02.958Z,83.12
2023-05-19T22:02:40.779Z,83.44
2023-05-19T22:05:09.323Z,83.80
2023-05-19T22:07:36.991Z,84.23
2023-05-19T22:10:05.296Z,83.56
2023-05-19T22:12:33.059Z,84.04
2023-05-19T22:15:01.349Z,83.53
2023-05-19T22:17:29.825Z,83.75
2023-05-19T22:19:58.759Z,83.79
2023-05-19T22:22:26.416Z,83.74
2023-05-19T22:24:53.988Z,83.84
2023-05-19T22:27:21.586Z,84.33
2023-05-19T22:29:49.114Z,84.89
2023-05-19T22:32:18.297Z,85.31
2023-05-19T22:34:46.316Z,85.22
2023-05-19T22:37:15.517Z,85.15
2023-05-19T22:39:43.082Z,85.38
2023-05-19T22:42:11.029Z,85.17
2023-05-19T22:44:38.931Z,84.74
2023-05-19T22:47:06.592Z,85.26
2023-05-19T22:49:34.185Z,85.65
2023-05-19T22:52:02.071Z,85.57
2023-05-19T22:54:30.994Z,85.76
2023-05-19T22:56:58.549Z,85.96
2023-05-19T22:59:26.307Z,86.21
2023-05-19T23:01:53.988Z,85.88
2023-05-19T23:04:21.574Z,85.39
2023-05-19T23:06:50.240Z,85.41
2023-05-19T23:09:17.955Z,85.62
2023-05-19T23:11:47.017Z,86.30
2023-05-19T23:14:14.630Z,86.30
2023-05-19T23:16:42.469Z,86.38
2023-05-19T23:19:10.240Z,86.39
2023-05-19T23:21:37.901Z,86.15
2023-05-19T23:24:06.439Z,86.87
2023-05-19T23:26:34.073Z,86.22
2023-05-19T23:29:03.079Z,86.69
2023-05-19T23:31:30.754Z,86.16
2023-05-19T23:33:58.452Z,86.31
2023-05-19T23:36:26.049Z,86.56
2023-05-19T23:38:53.581Z,87.12
2023-05-19T23:41:21.324Z,86.97
2023-05-19T23:43:49.120Z,87.54
2023-05-19T23:46:18.193Z,87.38
2023-05-19T23:48:45.879Z,87.70
2023-05-19T23:51:13.558Z,87.79
2023-05-19T23:53:41.179Z,87.91
2023-05-19T23:56:09.168Z,87.91
2023-05-19T23:58:36.741Z,87.52
